Time;durP1;ratioP1;P1;durP2;ratioP2;P2;SDS_P1;SDS_P2;PMS_P1;PMS_P2;Temp;Humidity;BMP_temperature;BMP_pressure;BME280_temperature;BME280_humidity;BME280_pressure;Samples;Min_cycle;Max_cycle;Signal;HPM_P1;HPM_P2
2021/03/06 00:01:13;;;;;;;11.48;2.22;;;28.50;40.70;;;;;;5000892;28;20503;-70
2021/03/06 00:03:42;;;;;;;7.22;1.65;;;29.00;40.30;;;;;;4999052;28;20849;-68
2021/03/06 00:06:10;;;;;;;9.35;2.15;;;29.30;40.50;;;;;;5001165;28;20049;-67
2021/03/06 00:08:38;;;;;;;7.43;2.28;;;29.40;38.00;;;;;;5000750;28;20029;-71
2021/03/06 00:11:05;;;;;;;7.53;1.75;;;29.50;37.90;;;;;;5002179;28;20775;-69
2021/03/06 00:13:36;;;;;;;5.50;1.83;;;29.30;37.90;;;;;;4996725;28;20036;-67
2021/03/06 00:16:05;;;;;;;8.88;1.73;;;29.30;37.90;;;;;;4997647;28;20045;-67
2021/03/06 00:18:32;;;;;;;9.27;3.20;;;29.70;38.70;;;;;;5001645;28;20018;-69
2021/03/06 00:20:59;;;;;;;5.93;1.23;;;29.80;37.30;;;;;;5000299;28;20061;-69
2021/03/06 00:23:28;;;;;;;8.10;1.85;;;29.30;36.50;;;;;;5000393;28;20038;-66
2021/03/06 00:25:55;;;;;;;7.55;1.80;;;28.40;38.90;;;;;;4999764;28;20053;-68
2021/03/06 00:28:23;;;;;;;7.07;1.60;;;28.80;39.60;;;;;;5000760;28;20072;-67
2021/03/06 00:30:50;;;;;;;6.60;2.05;;;29.10;40.00;;;;;;5002650;28;20188;-67
2021/03/06 00:33:18;;;;;;;9.10;2.17;;;29.70;37.90;;;;;;4999197;28;20532;-65
2021/03/06 00:35:45;;;;;;;6.55;1.95;;;29.70;39.60;;;;;;4998874;28;20131;-68
2021/03/06 00:38:12;;;;;;;8.43;2.55;;;28.90;38.40;;;;;;5001491;28;20053;-70
2021/03/06 00:40:40;;;;;;;9.00;1.80;;;28.30;39.30;;;;;;5001864;28;20603;-66
2021/03/06 00:43:07;;;;;;;6.88;2.03;;;27.70;40.40;;;;;;4998618;28;20056;-68
2021/03/06 00:45:34;;;;;;;10.18;2.20;;;27.30;42.80;;;;;;4997556;28;21289;-68
2021/03/06 00:48:02;;;;;;;6.30;1.30;;;27.00;42.00;;;;;;5001381;28;20049;-71
2021/03/06 00:50:33;;;;;;;5.55;1.67;;;26.90;42.30;;;;;;5003244;28;20113;-67
2021/03/06 00:53:00;;;;;;;5.47;1.35;;;26.50;42.20;;;;;;5004783;28;20361;-67
2021/03/06 00:55:28;;;;;;;7.47;2.00;;;26.40;42.50;;;;;;5002198;28;20026;-66
2021/03/06 00:57:55;;;;;;;10.05;2.25;;;26.40;42.90;;;;;;5004423;28;20034;-66
2021/03/06 01:00:23;;;;;;;9.45;2.22;;;26.50;43.30;;;;;;5006106;28;20396;-66
2021/03/06 01:02:51;;;;;;;4.03;1.80;;;26.70;42.50;;;;;;5003846;28;20400;-67
2021/03/06 01:05:18;;;;;;;8.80;2.13;;;27.00;43.40;;;;;;5003467;28;20037;-70
2021/03/06 01:07:46;;;;;;;6.03;1.50;;;27.10;42.20;;;;;;5004631;28;20038;-71
2021/03/06 01:10:18;;;;;;;6.07;1.63;;;26.90;42.70;;;;;;5005871;28;20088;-65
2021/03/06 01:12:47;;;;;;;4.30;1.52;;;26.90;42.30;;;;;;5004685;28;20049;-71
2021/03/06 01:15:14;;;;;;;6.47;2.22;;;26.90;43.60;;;;;;5000850;28;20037;-69
2021/03/06 01:17:42;;;;;;;8.02;2.08;;;26.90;41.90;;;;;;5004927;28;20492;-65
2021/03/06 01:20:10;;;;;;;8.30;2.42;;;26.70;41.70;;;;;;5005745;28;20424;-67
2021/03/06 01:22:38;;;;;;;10.23;1.70;;;26.60;43.00;;;;;;5004332;28;20557;-66
2021/03/06 01:25:08;;;;;;;7.57;1.83;;;26.50;43.00;;;;;;5001796;28;20111;-68
2021/03/06 01:27:36;;;;;;;8.30;2.25;;;26.30;42.60;;;;;;5003519;28;20671;-66
2021/03/06 01:30:05;;;;;;;5.05;1.60;;;26.40;42.90;;;;;;5005689;28;20089;-67
2021/03/06 01:32:32;;;;;;;8.70;1.55;;;26.50;44.30;;;;;;5003227;28;20022;-66
2021/03/06 01:34:59;;;;;;;9.15;1.63;;;26.50;42.70;;;;;;4999865;28;20381;-67
2021/03/06 01:37:27;;;;;;;5.35;1.30;;;26.00;41.80;;;;;;5005474;28;20092;-65
2021/03/06 01:39:54;;;;;;;8.45;2.30;;;25.80;43.20;;;;;;5003638;28;20049;-67
2021/03/06 01:42:22;;;;;;;5.13;1.30;;;27.00;44.60;;;;;;5003910;28;20092;-68
2021/03/06 01:44:51;;;;;;;8.23;1.60;;;28.50;43.30;;;;;;5002811;28;20077;-66
2021/03/06 01:47:19;;;;;;;8.93;1.90;;;29.10;40.00;;;;;;5004920;28;20057;-68
2021/03/06 01:49:46;;;;;;;9.52;2.15;;;28.70;38.10;;;;;;5004114;28;20098;-70
2021/03/06 01:52:15;;;;;;;7.88;1.75;;;28.40;40.40;;;;;;5004147;28;20038;-67
2021/03/06 01:54:43;;;;;;;9.07;1.42;;;27.90;38.50;;;;;;5002702;28;20026;-69
2021/03/06 01:57:11;;;;;;;9.90;3.28;;;27.40;39.00;;;;;;5004912;28;20056;-68
2021/03/06 01:59:39;;;;;;;21.23;4.78;;;26.70;39.80;;;;;;5002935;28;20594;-68
2021/03/06 02:02:07;;;;;;;16.15;3.42;;;26.00;42.10;;;;;;5000046;28;20475;-71
2021/03/06 02:04:35;;;;;;;11.73;2.28;;;25.90;42.90;;;;;;5001731;28;20030;-69
2021/03/06 02:07:03;;;;;;;8.02;1.58;;;25.90;42.50;;;;;;5004392;28;20030;-70
2021/03/06 02:09:30;;;;;;;8.45;2.10;;;25.80;43.10;;;;;;5004568;28;20036;-71
2021/03/06 02:12:13;;;;;;;8.60;1.90;;;25.90;42.80;;;;;;5003375;28;20088;-68
2021/03/06 02:15:21;;;;;;;9.68;1.77;;;25.70;43.20;;;;;;4998248;28;20121;-69
2021/03/06 02:18:00;;;;;;;6.97;1.45;;;25.70;42.70;;;;;;5003330;28;21205;-67
2021/03/06 02:20:42;;;;;;;7.72;1.27;;;25.70;42.10;;;;;;5003299;28;20477;-69
2021/03/06 02:23:30;;;;;;;7.90;2.13;;;25.70;42.20;;;;;;5001436;28;20112;-67
2021/03/06 02:26:28;;;;;;;8.20;1.60;;;25.90;42.30;;;;;;5002463;28;20057;-69
2021/03/06 02:29:32;;;;;;;6.82;2.05;;;26.00;41.40;;;;;;5003634;28;20022;-68
2021/03/06 02:32:04;;;;;;;6.28;1.40;;;26.20;41.10;;;;;;5000418;28;20031;-69
2021/03/06 02:34:32;;;;;;;7.70;1.48;;;26.10;41.00;;;;;;5001210;28;20054;-67
2021/03/06 02:37:07;;;;;;;7.88;1.80;;;25.90;40.80;;;;;;5002037;28;20061;-67
2021/03/06 02:39:38;;;;;;;10.05;2.15;;;25.90;42.70;;;;;;5002620;28;20380;-67
2021/03/06 02:42:07;;;;;;;6.65;2.00;;;26.10;42.80;;;;;;5002498;28;20034;-69
2021/03/06 02:44:36;;;;;;;7.25;1.58;;;26.30;42.20;;;;;;5000968;28;20049;-67
2021/03/06 02:47:04;;;;;;;6.93;1.65;;;26.60;42.00;;;;;;5003645;28;20030;-68
2021/03/06 02:49:33;;;;;;;4.45;1.30;;;26.90;43.40;;;;;;5001919;28;20443;-69
2021/03/06 02:52:01;;;;;;;6.63;1.60;;;26.90;40.40;;;;;;5000880;28;20069;-67
2021/03/06 02:54:29;;;;;;;6.07;1.55;;;26.80;39.90;;;;;;4998703;28;20388;-67
2021/03/06 02:56:57;;;;;;;7.43;2.03;;;26.90;40.90;;;;;;5001309;28;20068;-67
2021/03/06 02:59:50;;;;;;;10.00;1.90;;;26.50;40.20;;;;;;4999588;28;20471;-65
2021/03/06 03:02:43;;;;;;;8.25;2.03;;;26.00;40.60;;;;;;5001415;28;20506;-66
2021/03/06 03:05:17;;;;;;;7.13;1.63;;;25.30;42.00;;;;;;5000307;28;20036;-67
2021/03/06 03:08:05;;;;;;;7.38;1.83;;;25.20;43.30;;;;;;5001193;28;20136;-67
2021/03/06 03:10:35;;;;;;;6.55;1.60;;;25.20;42.50;;;;;;5003568;28;20045;-65
2021/03/06 03:13:11;;;;;;;8.63;2.00;;;25.30;43.10;;;;;;4998980;28;20034;-67
2021/03/06 03:15:42;;;;;;;11.70;1.67;;;25.90;43.50;;;;;;4999729;28;20313;-66
2021/03/06 03:18:26;;;;;;;5.78;1.63;;;26.40;42.60;;;;;;5001485;28;20033;-66
2021/03/06 03:20:59;;;;;;;8.40;2.28;;;26.60;41.70;;;;;;5002164;28;20084;-66
2021/03/06 03:23:41;;;;;;;8.10;1.77;;;26.60;41.30;;;;;;5000490;28;20061;-67
2021/03/06 03:26:14;;;;;;;4.63;1.73;;;26.70;40.90;;;;;;5001651;28;20057;-65
2021/03/06 03:28:49;;;;;;;11.52;2.20;;;26.80;41.00;;;;;;5000597;28;20327;-66
2021/03/06 03:31:19;;;;;;;9.32;2.20;;;27.70;40.50;;;;;;5000947;28;20083;-66
2021/03/06 03:33:47;;;;;;;9.32;2.47;;;28.80;38.60;;;;;;4999478;28;20057;-66
2021/03/06 03:36:15;;;;;;;10.77;1.58;;;28.70;38.80;;;;;;5000704;28;20034;-66
2021/03/06 03:38:46;;;;;;;6.25;1.50;;;28.20;38.70;;;;;;4999997;28;20072;-65
2021/03/06 03:41:13;;;;;;;7.88;1.70;;;27.50;39.20;;;;;;5001075;28;20060;-67
2021/03/06 03:43:41;;;;;;;10.95;2.03;;;27.10;39.40;;;;;;4997350;28;20053;-68
2021/03/06 03:46:10;;;;;;;9.40;2.63;;;27.40;38.30;;;;;;5001269;28;20030;-66
2021/03/06 03:48:42;;;;;;;10.63;2.90;;;27.60;38.70;;;;;;5001346;28;20225;-68
2021/03/06 03:51:10;;;;;;;8.43;1.92;;;28.00;38.80;;;;;;5001585;28;20515;-67
2021/03/06 03:53:39;;;;;;;5.78;1.85;;;28.50;37.90;;;;;;4998220;28;20833;-67
2021/03/06 03:56:10;;;;;;;8.30;1.85;;;28.80;38.00;;;;;;5001435;28;20034;-67
2021/03/06 03:58:37;;;;;;;8.25;1.67;;;28.50;38.20;;;;;;5000306;28;20064;-68
2021/03/06 04:01:04;;;;;;;11.23;2.35;;;28.20;37.50;;;;;;5000436;28;20049;-70
2021/03/06 04:03:32;;;;;;;8.13;1.70;;;28.00;38.40;;;;;;4998505;28;20342;-69
2021/03/06 04:06:01;;;;;;;8.95;2.30;;;27.60;37.60;;;;;;4999495;28;20022;-67
2021/03/06 04:08:28;;;;;;;8.55;2.47;;;27.20;39.60;;;;;;4998744;28;20350;-67
2021/03/06 04:10:55;;;;;;;9.88;1.98;;;27.30;39.60;;;;;;4999750;28;20128;-67
2021/03/06 04:13:24;;;;;;;9.07;1.67;;;27.30;41.20;;;;;;4998885;28;20030;-69
2021/03/06 04:15:51;;;;;;;7.97;1.70;;;27.00;40.50;;;;;;4998152;28;20037;-66
2021/03/06 04:18:19;;;;;;;8.23;1.85;;;26.80;40.80;;;;;;5001842;28;20069;-65
2021/03/06 04:20:46;;;;;;;9.35;2.42;;;26.30;40.20;;;;;;5002395;28;20045;-66
2021/03/06 04:23:14;;;;;;;9.93;2.47;;;25.90;42.00;;;;;;5000068;28;20071;-67
2021/03/06 04:25:41;;;;;;;5.53;1.40;;;25.80;41.80;;;;;;4999573;28;20040;-66
2021/03/06 04:28:08;;;;;;;6.03;2.00;;;26.10;42.10;;;;;;5000647;28;20076;-67
2021/03/06 04:30:36;;;;;;;6.75;2.00;;;26.80;41.80;;;;;;5002229;28;20045;-68
2021/03/06 04:33:03;;;;;;;7.88;1.60;;;27.30;41.00;;;;;;5000173;28;20041;-68
2021/03/06 04:35:31;;;;;;;5.53;1.75;;;27.50;39.60;;;;;;4998873;28;20040;-67
2021/03/06 04:37:58;;;;;;;6.05;1.50;;;27.70;39.10;;;;;;5001717;28;20117;-67
2021/03/06 04:40:26;;;;;;;7.88;1.27;;;27.40;38.90;;;;;;5001272;28;20079;-68
2021/03/06 04:42:53;;;;;;;5.43;1.25;;;26.60;40.30;;;;;;4999846;28;20026;-67
2021/03/06 04:45:21;;;;;;;7.95;1.70;;;26.60;41.60;;;;;;5000289;28;20046;-71
2021/03/06 04:47:49;;;;;;;6.30;1.83;;;26.60;40.90;;;;;;4999947;28;20034;-66
2021/03/06 04:50:18;;;;;;;6.95;1.70;;;26.40;41.00;;;;;;5001496;28;20038;-66
2021/03/06 04:52:45;;;;;;;6.70;2.00;;;26.10;41.70;;;;;;4998335;28;20117;-66
2021/03/06 04:55:13;;;;;;;9.68;1.70;;;26.00;42.00;;;;;;4998281;28;20394;-66
2021/03/06 04:57:40;;;;;;;5.05;1.88;;;25.80;42.50;;;;;;5001335;28;20084;-69
2021/03/06 05:00:09;;;;;;;6.55;1.38;;;25.70;42.60;;;;;;5002025;28;20053;-71
2021/03/06 05:02:37;;;;;;;9.65;3.28;;;25.70;43.10;;;;;;5000085;28;20145;-67
2021/03/06 05:05:08;;;;;;;9.77;1.75;;;25.60;43.10;;;;;;4998166;28;20048;-69
2021/03/06 05:07:36;;;;;;;5.03;1.38;;;25.60;43.10;;;;;;5001455;28;20022;-69
2021/03/06 05:10:04;;;;;;;6.03;2.15;;;26.10;42.80;;;;;;5002219;28;20044;-68
2021/03/06 05:12:32;;;;;;;8.27;1.65;;;26.70;41.10;;;;;;5000444;28;20077;-68
2021/03/06 05:14:59;;;;;;;6.82;1.85;;;27.30;41.60;;;;;;4999689;28;20316;-71
2021/03/06 05:17:27;;;;;;;7.07;1.60;;;27.10;42.30;;;;;;5000800;28;20050;-70
2021/03/06 05:19:58;;;;;;;8.55;1.80;;;27.40;41.00;;;;;;5001808;28;20033;-69
2021/03/06 05:22:26;;;;;;;7.28;1.92;;;27.70;38.90;;;;;;5000010;28;21005;-70
2021/03/06 05:24:54;;;;;;;6.63;2.17;;;27.80;38.00;;;;;;4997858;28;20137;-72
2021/03/06 05:27:24;;;;;;;5.03;1.80;;;27.50;39.20;;;;;;5000035;28;20041;-67
2021/03/06 05:29:51;;;;;;;6.65;1.52;;;27.20;39.00;;;;;;5000457;28;20629;-68
2021/03/06 05:32:18;;;;;;;6.25;1.50;;;26.80;39.10;;;;;;5000556;28;20038;-67
2021/03/06 05:34:46;;;;;;;6.88;1.98;;;27.00;40.30;;;;;;4998257;28;20500;-72
2021/03/06 05:37:13;;;;;;;12.60;2.50;;;27.40;41.30;;;;;;5003086;28;20032;-67
2021/03/06 05:39:40;;;;;;;3.55;1.80;;;27.60;40.10;;;;;;5003721;28;20026;-68
2021/03/06 05:42:13;;;;;;;2.70;1.15;;;27.70;40.00;;;;;;5001456;28;20871;-69
2021/03/06 05:44:42;;;;;;;8.00;1.60;;;27.60;39.70;;;;;;4999876;28;20053;-67
2021/03/06 05:47:12;;;;;;;7.05;2.33;;;27.00;41.40;;;;;;5004186;28;20018;-69
2021/03/06 05:49:39;;;;;;;11.02;2.85;;;26.60;41.40;;;;;;5004376;28;20033;-69
2021/03/06 05:52:08;;;;;;;4.53;1.30;;;26.30;41.90;;;;;;5004652;28;20052;-66
2021/03/06 05:54:37;;;;;;;6.28;2.03;;;26.40;41.70;;;;;;5001372;28;20388;-67
2021/03/06 05:57:06;;;;;;;11.52;2.10;;;26.70;41.70;;;;;;5005023;28;20177;-69
2021/03/06 05:59:35;;;;;;;6.78;1.85;;;26.60;41.00;;;;;;5004215;28;20056;-71
2021/03/06 06:02:02;;;;;;;4.78;1.90;;;26.30;41.80;;;;;;5004016;28;20057;-69
2021/03/06 06:04:31;;;;;;;9.15;1.67;;;26.40;41.90;;;;;;5002365;28;20022;-71
2021/03/06 06:07:01;;;;;;;5.07;1.50;;;26.50;41.40;;;;;;5004098;28;20400;-67
2021/03/06 06:09:29;;;;;;;9.35;1.38;;;26.40;41.30;;;;;;5003311;28;20117;-69
2021/03/06 06:11:56;;;;;;;6.28;1.50;;;26.40;42.00;;;;;;5002478;28;20045;-67
2021/03/06 06:14:25;;;;;;;4.00;1.00;;;26.20;42.30;;;;;;5002250;28;20041;-67
2021/03/06 06:16:53;;;;;;;7.95;1.73;;;26.00;42.70;;;;;;5003649;28;20602;-70
2021/03/06 06:19:21;;;;;;;8.55;2.20;;;25.80;42.70;;;;;;5003412;28;20044;-69
2021/03/06 06:21:50;;;;;;;12.18;2.88;;;25.30;42.80;;;;;;5003624;28;20030;-67
2021/03/06 06:24:22;;;;;;;9.50;2.60;;;25.10;43.50;;;;;;5002491;28;20048;-71
2021/03/06 06:26:54;;;;;;;6.05;1.70;;;24.90;44.20;;;;;;5003232;28;20129;-71
2021/03/06 06:29:38;;;;;;;6.93;1.70;;;24.90;44.50;;;;;;5002546;28;20026;-68
2021/03/06 06:32:08;;;;;;;8.07;1.70;;;24.60;45.00;;;;;;5003036;28;20057;-69
2021/03/06 06:34:37;;;;;;;6.80;1.45;;;24.50;46.10;;;;;;5000160;28;20034;-69
2021/03/06 06:37:15;;;;;;;4.10;1.75;;;24.50;45.90;;;;;;5003474;28;20041;-71
2021/03/06 06:39:43;;;;;;;6.70;1.13;;;24.30;46.50;;;;;;5003890;28;20021;-68
2021/03/06 06:42:11;;;;;;;3.75;1.95;;;24.40;46.70;;;;;;4999551;28;20392;-67
2021/03/06 06:44:39;;;;;;;4.20;1.42;;;24.60;46.40;;;;;;5001586;28;20405;-67
2021/03/06 06:47:18;;;;;;;4.65;1.20;;;24.60;46.50;;;;;;5003448;28;20029;-69
2021/03/06 06:49:47;;;;;;;3.38;0.88;;;24.50;46.70;;;;;;5003077;28;20121;-72
2021/03/06 06:52:17;;;;;;;5.78;1.35;;;24.40;47.30;;;;;;5003648;28;20048;-67
2021/03/06 06:54:59;;;;;;;4.65;1.10;;;24.20;47.80;;;;;;4999471;28;20030;-67
2021/03/06 06:57:28;;;;;;;5.05;1.45;;;24.00;48.20;;;;;;5002040;28;20029;-68
2021/03/06 07:00:08;;;;;;;6.10;1.80;;;23.90;48.20;;;;;;5002639;28;20156;-71
2021/03/06 07:02:36;;;;;;;7.18;1.42;;;23.90;48.70;;;;;;5000828;28;20487;-73
2021/03/06 07:05:08;;;;;;;5.53;1.10;;;23.90;48.90;;;;;;4999761;28;20030;-68
2021/03/06 07:07:40;;;;;;;5.82;1.35;;;23.90;49.10;;;;;;5002293;28;20038;-68
2021/03/06 07:10:18;;;;;;;4.60;1.67;;;24.00;48.50;;;;;;5003113;28;20091;-69
2021/03/06 07:12:56;;;;;;;8.73;1.95;;;24.00;48.80;;;;;;5001392;28;20076;-69
2021/03/06 07:15:25;;;;;;;3.95;1.10;;;23.90;49.00;;;;;;4998738;28;20489;-67
2021/03/06 07:17:55;;;;;;;12.60;2.30;;;23.80;49.30;;;;;;5001812;28;20056;-68
2021/03/06 07:20:26;;;;;;;4.82;1.15;;;23.70;49.00;;;;;;5002901;28;20481;-66
2021/03/06 07:22:56;;;;;;;7.22;1.83;;;23.60;49.20;;;;;;5001431;28;20042;-67
2021/03/06 07:25:25;;;;;;;3.17;1.13;;;23.70;49.80;;;;;;5000543;28;20504;-68
2021/03/06 07:27:53;;;;;;;7.57;1.15;;;23.60;49.10;;;;;;5002611;28;21438;-70
2021/03/06 07:30:21;;;;;;;7.78;1.98;;;23.60;49.50;;;;;;5000567;28;20022;-72
2021/03/06 07:32:52;;;;;;;6.53;1.27;;;23.40;49.60;;;;;;4999847;28;20053;-71
2021/03/06 07:35:22;;;;;;;4.93;1.48;;;23.20;50.40;;;;;;5000286;28;20030;-67
2021/03/06 07:38:00;;;;;;;3.20;1.13;;;23.10;50.90;;;;;;5002207;28;20037;-70
2021/03/06 07:40:30;;;;;;;8.73;1.92;;;23.00;51.20;;;;;;5002508;28;20030;-71
2021/03/06 07:43:14;;;;;;;12.00;2.28;;;22.90;51.60;;;;;;5000641;28;20163;-71
2021/03/06 07:45:43;;;;;;;3.80;1.70;;;22.80;52.50;;;;;;5000466;28;20038;-69
2021/03/06 07:48:15;;;;;;;5.50;1.48;;;22.60;52.90;;;;;;5002807;28;20025;-70
2021/03/06 07:50:45;;;;;;;9.88;2.72;;;22.50;53.30;;;;;;5002729;28;20055;-68
2021/03/06 07:53:18;;;;;;;8.38;1.25;;;22.50;53.90;;;;;;4999542;28;20037;-72
2021/03/06 07:55:47;;;;;;;5.05;1.40;;;22.40;54.40;;;;;;4999818;28;20358;-70
2021/03/06 07:58:18;;;;;;;7.05;1.40;;;22.40;54.70;;;;;;5002095;28;20026;-70
2021/03/06 08:00:59;;;;;;;7.90;1.63;;;22.30;55.30;;;;;;5001959;28;20052;-71
2021/03/06 08:03:30;;;;;;;5.90;1.60;;;22.20;55.50;;;;;;5000737;28;20022;-70
2021/03/06 08:06:03;;;;;;;8.77;2.05;;;22.20;56.10;;;;;;5000945;28;20640;-70
2021/03/06 08:08:33;;;;;;;7.68;2.08;;;22.00;56.90;;;;;;5000975;28;20018;-70
2021/03/06 08:11:09;;;;;;;8.00;2.30;;;21.90;57.50;;;;;;5002732;28;20041;-70
2021/03/06 08:13:54;;;;;;;4.90;1.52;;;21.90;57.90;;;;;;4999474;28;20141;-67
2021/03/06 08:16:31;;;;;;;6.90;1.40;;;21.80;58.50;;;;;;4999945;28;20045;-70
2021/03/06 08:19:10;;;;;;;4.05;1.27;;;21.80;58.90;;;;;;5000538;28;20125;-71
2021/03/06 08:21:47;;;;;;;5.57;1.60;;;21.60;59.20;;;;;;5002587;28;20113;-72
2021/03/06 08:24:24;;;;;;;7.53;1.80;;;21.60;59.80;;;;;;5000643;28;20484;-71
2021/03/06 08:27:03;;;;;;;9.90;1.98;;;21.50;60.00;;;;;;5000774;28;20028;-72
2021/03/06 08:29:35;;;;;;;5.43;1.30;;;21.50;60.30;;;;;;5001206;28;20042;-71
2021/03/06 08:32:06;;;;;;;7.90;1.10;;;21.50;60.40;;;;;;5000329;28;20041;-72
2021/03/06 08:34:37;;;;;;;6.57;1.38;;;21.40;60.60;;;;;;5000876;28;20030;-72
2021/03/06 08:37:19;;;;;;;7.18;1.27;;;21.30;60.70;;;;;;5001718;28;20030;-70
2021/03/06 08:39:52;;;;;;;8.27;2.35;;;21.30;61.10;;;;;;5000262;28;20026;-72
2021/03/06 08:42:22;;;;;;;8.52;2.45;;;21.30;61.30;;;;;;5000822;28;20026;-69
2021/03/06 08:44:50;;;;;;;12.35;1.83;;;21.30;60.90;;;;;;4998393;28;20120;-70
2021/03/06 08:47:28;;;;;;;6.03;1.63;;;21.30;61.10;;;;;;5001494;28;20053;-71
2021/03/06 08:49:58;;;;;;;3.72;1.13;;;21.20;61.10;;;;;;5000571;28;20036;-70
2021/03/06 08:52:28;;;;;;;11.48;2.00;;;21.10;61.30;;;;;;5000932;28;20536;-70
2021/03/06 08:54:56;;;;;;;7.95;1.48;;;21.10;61.30;;;;;;5000099;28;20030;-71
2021/03/06 08:57:33;;;;;;;4.53;1.33;;;21.00;61.30;;;;;;5002478;28;20114;-70
2021/03/06 09:00:05;;;;;;;10.90;1.77;;;21.10;60.70;;;;;;5001713;28;20225;-70
2021/03/06 09:02:34;;;;;;;7.03;1.45;;;21.00;60.80;;;;;;5000290;28;20088;-71
2021/03/06 09:05:02;;;;;;;5.97;1.55;;;21.00;60.90;;;;;;5000322;28;20092;-71
2021/03/06 09:07:31;;;;;;;6.43;1.13;;;21.00;60.60;;;;;;5001430;28;20037;-70
2021/03/06 09:10:20;;;;;;;7.05;1.58;;;20.90;60.40;;;;;;5001735;28;20030;-70
2021/03/06 09:12:50;;;;;;;4.80;1.60;;;20.90;60.60;;;;;;5002836;28;20145;-70
2021/03/06 09:15:54;;;;;;;5.38;1.50;;;20.90;61.00;;;;;;5003081;28;20489;-71
2021/03/06 09:18:26;;;;;;;5.70;1.75;;;20.90;60.70;;;;;;5004363;28;20099;-70
2021/03/06 09:21:01;;;;;;;7.95;1.85;;;20.90;61.10;;;;;;5003982;28;20030;-71
2021/03/06 09:23:30;;;;;;;9.35;2.05;;;20.90;61.10;;;;;;5003761;28;20076;-71
2021/03/06 09:26:01;;;;;;;6.28;1.55;;;20.90;61.30;;;;;;5003529;28;20068;-71
2021/03/06 09:28:32;;;;;;;4.35;1.00;;;20.90;61.20;;;;;;5005189;28;20040;-71
2021/03/06 09:31:02;;;;;;;4.90;1.13;;;20.90;61.40;;;;;;5005426;28;20057;-71
2021/03/06 09:33:35;;;;;;;6.55;1.15;;;21.00;61.60;;;;;;5004412;28;20030;-71
2021/03/06 09:36:17;;;;;;;8.20;2.20;;;20.90;61.80;;;;;;5005026;28;20160;-70
2021/03/06 09:38:58;;;;;;;8.05;2.10;;;20.90;62.30;;;;;;5006142;28;20203;-70
2021/03/06 09:41:35;;;;;;;6.47;1.40;;;20.90;62.50;;;;;;5005327;28;20095;-70
2021/03/06 09:44:06;;;;;;;7.88;2.17;;;20.90;62.80;;;;;;5002866;28;20046;-71
2021/03/06 09:46:36;;;;;;;8.05;1.70;;;20.90;62.80;;;;;;5002863;28;20041;-71
2021/03/06 09:49:16;;;;;;;5.85;1.27;;;20.80;63.00;;;;;;5005174;28;20034;-71
2021/03/06 09:51:55;;;;;;;5.03;1.42;;;20.80;63.00;;;;;;5004683;28;20076;-71
2021/03/06 09:54:26;;;;;;;7.13;1.30;;;20.80;63.10;;;;;;5003313;28;20022;-72
2021/03/06 09:57:02;;;;;;;7.82;1.60;;;20.80;63.10;;;;;;5001624;28;20037;-71
2021/03/06 09:59:38;;;;;;;5.70;1.20;;;20.80;63.10;;;;;;5004760;28;20029;-70
2021/03/06 10:02:12;;;;;;;5.57;1.58;;;20.80;63.00;;;;;;5003676;28;20080;-71
2021/03/06 10:04:40;;;;;;;7.80;1.52;;;20.80;62.90;;;;;;5004924;28;20034;-69
2021/03/06 10:07:12;;;;;;;4.93;1.48;;;20.90;63.00;;;;;;5003655;28;20037;-68
2021/03/06 10:09:40;;;;;;;4.40;1.30;;;20.90;62.80;;;;;;5004003;28;20048;-69
2021/03/06 10:12:10;;;;;;;6.10;1.42;;;20.90;63.10;;;;;;5003086;28;20670;-70
2021/03/06 10:14:38;;;;;;;7.57;1.58;;;20.90;63.00;;;;;;5004459;28;20084;-69
2021/03/06 10:17:10;;;;;;;8.98;1.42;;;20.90;62.90;;;;;;5002400;28;20624;-68
2021/03/06 10:19:53;;;;;;;7.18;1.40;;;20.90;62.80;;;;;;5004166;28;20033;-72
2021/03/06 10:22:21;;;;;;;5.95;1.60;;;20.90;62.70;;;;;;5002827;28;20092;-71
2021/03/06 10:25:03;;;;;;;5.57;1.30;;;20.80;62.50;;;;;;5002928;28;20030;-67
2021/03/06 10:27:48;;;;;;;6.43;1.10;;;20.80;62.60;;;;;;5003557;28;20112;-69
2021/03/06 10:30:18;;;;;;;6.95;1.50;;;20.80;62.40;;;;;;5003833;28;20032;-71
2021/03/06 10:32:52;;;;;;;7.22;1.98;;;20.80;62.70;;;;;;4999790;28;20079;-71
2021/03/06 10:35:46;;;;;;;4.88;1.42;;;20.80;62.60;;;;;;4998471;28;20090;-70
2021/03/06 10:38:30;;;;;;;7.25;1.25;;;20.80;62.10;;;;;;5004413;28;20045;-71
2021/03/06 10:41:03;;;;;;;7.68;1.30;;;20.80;62.20;;;;;;5003372;28;20136;-69
2021/03/06 10:43:33;;;;;;;5.68;1.25;;;20.70;62.50;;;;;;5000813;28;20587;-73
2021/03/06 10:46:22;;;;;;;5.25;1.65;;;20.70;62.40;;;;;;4998675;28;20452;-70
2021/03/06 10:49:06;;;;;;;14.18;2.28;;;20.80;62.40;;;;;;5001697;28;20029;-71
2021/03/06 10:51:46;;;;;;;6.18;1.20;;;20.70;62.50;;;;;;5003263;28;20111;-70
2021/03/06 10:54:13;;;;;;;4.28;1.35;;;20.70;62.50;;;;;;5000488;28;20829;-70
2021/03/06 10:56:42;;;;;;;6.35;1.40;;;20.70;62.50;;;;;;4998590;28;20381;-67
2021/03/06 10:59:10;;;;;;;10.55;1.90;;;20.70;62.80;;;;;;5002418;28;20039;-68
2021/03/06 11:01:53;;;;;;;5.97;1.90;;;20.60;62.70;;;;;;5000243;28;20034;-68
2021/03/06 11:04:33;;;;;;;4.65;1.83;;;20.60;62.90;;;;;;5001231;28;20499;-68
2021/03/06 11:07:10;;;;;;;6.90;1.77;;;20.60;62.90;;;;;;4999330;28;20026;-68
2021/03/06 11:09:39;;;;;;;3.58;1.35;;;20.50;63.20;;;;;;5002244;28;20021;-68
2021/03/06 11:12:28;;;;;;;5.75;1.45;;;20.50;63.10;;;;;;5001820;28;20391;-67
2021/03/06 11:15:16;;;;;;;7.72;1.60;;;20.50;63.30;;;;;;4999428;28;20026;-66
2021/03/06 11:17:46;;;;;;;8.02;2.10;;;20.50;63.60;;;;;;5001194;28;20025;-69
2021/03/06 11:20:16;;;;;;;8.20;1.67;;;20.50;63.80;;;;;;5002184;28;20060;-70
2021/03/06 11:22:44;;;;;;;3.90;1.23;;;20.40;63.70;;;;;;5000582;28;20088;-69
2021/03/06 11:25:15;;;;;;;4.35;1.10;;;20.40;63.80;;;;;;4999924;28;20049;-69
2021/03/06 11:28:04;;;;;;;8.80;1.42;;;20.40;64.10;;;;;;5003135;28;20108;-69
2021/03/06 11:30:35;;;;;;;5.03;1.15;;;20.30;64.00;;;;;;5002007;28;20155;-70
2021/03/06 11:33:08;;;;;;;8.40;1.25;;;20.40;64.20;;;;;;5000616;28;21398;-67
2021/03/06 11:35:39;;;;;;;;;;;20.30;63.80;;;;;;4998277;28;20964;-68
2021/03/06 11:38:10;;;;;;;4.65;1.73;;;20.30;63.90;;;;;;5001160;28;20031;-69
2021/03/06 11:40:41;;;;;;;9.85;1.73;;;20.30;63.90;;;;;;5000956;28;20038;-70
2021/03/06 11:43:08;;;;;;;8.93;1.60;;;20.30;64.20;;;;;;5000812;28;20033;-71
2021/03/06 11:45:37;;;;;;;4.13;1.45;;;20.20;64.40;;;;;;4997907;28;20516;-68
2021/03/06 11:48:05;;;;;;;6.85;1.52;;;20.20;64.40;;;;;;5001004;28;20055;-67
2021/03/06 11:50:35;;;;;;;10.25;1.65;;;20.20;64.40;;;;;;5002307;28;20045;-68
2021/03/06 11:53:04;;;;;;;8.80;2.45;;;20.20;64.40;;;;;;4999836;28;21262;-69
2021/03/06 11:55:34;;;;;;;5.55;1.70;;;20.20;64.70;;;;;;4999290;28;20093;-70
2021/03/06 11:58:02;;;;;;;7.53;2.28;;;20.20;64.80;;;;;;5000504;28;20034;-71
2021/03/06 12:00:32;;;;;;;10.32;1.67;;;20.20;64.80;;;;;;4999941;28;20030;-68
2021/03/06 12:03:00;;;;;;;9.90;1.67;;;20.20;65.00;;;;;;5001605;28;20048;-70
2021/03/06 12:05:28;;;;;;;6.75;1.88;;;20.20;65.10;;;;;;4999581;28;20068;-69
2021/03/06 12:07:56;;;;;;;15.73;2.05;;;20.10;65.10;;;;;;5002425;28;20128;-67
2021/03/06 12:10:27;;;;;;;6.95;1.40;;;20.10;65.40;;;;;;4998866;28;20088;-68
2021/03/06 12:12:56;;;;;;;7.30;1.63;;;20.00;65.40;;;;;;5000947;28;20041;-68
2021/03/06 12:15:25;;;;;;;7.68;1.70;;;20.10;65.50;;;;;;4998355;28;20116;-68
2021/03/06 12:17:53;;;;;;;6.00;1.40;;;20.00;65.60;;;;;;5001793;28;20424;-68
2021/03/06 12:20:21;;;;;;;8.50;1.92;;;20.00;65.70;;;;;;5001078;28;20060;-67
2021/03/06 12:22:49;;;;;;;3.92;1.52;;;20.00;65.70;;;;;;4999852;28;20021;-66
2021/03/06 12:25:17;;;;;;;8.73;1.77;;;19.90;65.90;;;;;;4997939;28;20034;-69
2021/03/06 12:27:45;;;;;;;8.63;2.53;;;19.90;66.10;;;;;;5000943;28;20063;-67
2021/03/06 12:30:15;;;;;;;9.40;1.40;;;19.90;66.30;;;;;;5000594;28;20042;-69
2021/03/06 12:32:47;;;;;;;10.05;2.30;;;19.90;66.20;;;;;;5000438;28;20038;-67
2021/03/06 12:35:16;;;;;;;6.15;1.33;;;19.90;66.40;;;;;;4996224;28;20097;-68
2021/03/06 12:37:43;;;;;;;6.03;1.83;;;19.90;66.50;;;;;;4999833;28;20116;-66
2021/03/06 12:40:12;;;;;;;8.77;2.50;;;19.90;66.60;;;;;;5001261;28;20018;-67
2021/03/06 12:42:39;;;;;;;5.93;1.63;;;19.90;66.30;;;;;;4998635;28;20197;-68
2021/03/06 12:45:09;;;;;;;4.03;1.25;;;19.80;66.60;;;;;;4999180;28;20500;-66
2021/03/06 12:47:37;;;;;;;7.40;1.27;;;19.90;66.30;;;;;;5002208;28;20412;-66
2021/03/06 12:50:06;;;;;;;6.25;1.63;;;19.80;66.30;;;;;;5004477;28;20427;-67
2021/03/06 12:52:34;;;;;;;7.85;1.80;;;19.90;66.40;;;;;;5003619;28;20433;-69
2021/03/06 12:55:01;;;;;;;6.50;1.30;;;19.90;66.70;;;;;;5005240;28;20022;-68
2021/03/06 12:57:28;;;;;;;5.07;1.35;;;19.80;66.60;;;;;;5003473;28;20038;-67
2021/03/06 12:59:56;;;;;;;4.57;1.80;;;19.80;66.70;;;;;;5004405;28;20032;-68
2021/03/06 13:02:23;;;;;;;5.65;1.35;;;19.80;66.70;;;;;;5003035;28;20026;-67
2021/03/06 13:04:51;;;;;;;10.77;3.10;;;19.70;66.80;;;;;;5006161;28;20057;-68
2021/03/06 13:07:19;;;;;;;4.55;1.45;;;19.70;67.00;;;;;;5001943;28;20030;-68